Bei Facebook empfehlenBei Twitter postenGoogle plusPinterest

Das Wetter im Erzgebirge am 11.04.2017

Wetter und Klima am 11.04.2017 Holzhau im Erzgebirge (630m ü.NN)
Letzte gemessene Temperatur und Uhrzeit der Messung23:45:00 Uhr3.80 °C
Temperatur (Maximum / Höchstwert) und Uhrzeit der Messung13:00:00 Uhr7.50 °C
Temperatur (Minimum / Tiefstwert) und Uhrzeit der Messung03:15:001.90 °C
Errechneter Absolutwert der Temperaturschwankungen zwischen Tmin und Tmax des Tages5.60 K
Errechnete Tagesmitteltemperatur4.27708 °C
Gesamt - Niederschlag des Tages (in flüssiger Form)0.00 Liter / m²
Luftdruck (Maximum / Höchstwert) und Zeitpunkt der Messung20:45:00 Uhr1019.10 hPa
Luftdruck (Minimum / Tiefstwert) und Zeitpunkt der Messung01:00:00 Uhr1014.10 hPa
Errechneter Absolutwert der Luftdruckschwankungen des Tages5.00 hPa
Höchste gemessene Windgeschwindigkeit und Uhrzeit der Messung08:45:00 Uhr11.16 km/h
Errechnete Windhäufigkeit in Relation zu den Messwerten des Tages39.58333 %
Niedrigste Windkühle (Windchill) und Zeitpunkt der Messung08:45:00 Uhr-0.60 °C
Taupunkt (Maximum / Höchstwert) und Uhrzeit der Messung00:00:00 Uhr1.20 °C
Taupunkt (Minimum / Tiefstwert) und Uhrzeit der Messung03:15:00-1.00 °C
Anzahl der automatisch eingelesenen Messwerte 96

Detaillierte Wetter- und Klima- Messwerte für den 11.04.2017 in Holzhau im Erzgebirge (630m ü.NN)
ZeitTemperaturLuftdruckRel. LuftfeuchteWindWindrichtungWindchillTaupunktNiederschlag l/m²
23:45:003.80 °C1018.30 hPa77.00 %0.10 °C 
23:30:003.80 °C1018.20 hPa76.00 %0.00 °C 
23:15:003.80 °C1018.40 hPa76.00 %0.00 °C 
23:00:003.80 °C1018.40 hPa76.00 %0.00 °C 
22:45:003.90 °C1018.50 hPa76.00 %0.10 °C 
22:30:003.90 °C1018.50 hPa75.00 %-0.10 °C 
22:15:004.10 °C1018.70 hPa75.00 %0.10 °C 
22:00:004.10 °C1018.80 hPa74.00 %-0.10 °C 
21:45:004.20 °C1018.90 hPa74.00 %0.00 °C 
21:30:004.20 °C1018.90 hPa74.00 %0.00 °C 
21:15:004.20 °C1018.80 hPa74.00 %0.00 °C 
21:00:004.30 °C1018.70 hPa74.00 %0.10 °C 
20:45:004.30 °C1019.10 hPa74.00 %0.10 °C 
20:30:004.40 °C1018.90 hPa73.00 %0.00 °C 
20:15:004.40 °C1018.70 hPa73.00 %0.00 °C 
20:00:004.50 °C1018.70 hPa72.00 %-0.10 °C 
19:45:004.60 °C1018.60 hPa72.00 %0.00 °C 
19:30:004.70 °C1018.70 hPa71.00 %-0.10 °C 
19:15:004.80 °C1018.60 hPa71.00 %0.00 °C 
19:00:005.00 °C1018.70 hPa70.00 %0.00 °C 
18:45:005.20 °C1018.80 hPa70.00 %0.20 °C 
18:30:005.30 °C1018.80 hPa69.00 %0.10 °C 
18:15:005.30 °C1018.80 hPa69.00 %0.10 °C 
18:00:005.40 °C1018.60 hPa68.00 %0.00 °C 
17:45:005.60 °C1018.90 hPa67.00 %0.00 °C 
17:30:005.60 °C1018.70 hPa67.00 %0.00 °C 
17:15:005.80 °C1018.70 hPa67.00 %0.20 °C 
17:00:005.70 °C1018.70 hPa67.00 %1.44 km/hWNW5.70 °C0.10 °C 
16:45:005.60 °C1018.80 hPa67.00 %5.40 km/hW4.60 °C0.00 °C 
16:30:006.10 °C1018.60 hPa65.00 %0.36 km/hNW6.10 °C0.00 °C 
16:15:006.10 °C1018.70 hPa66.00 %0.20 °C 
16:00:005.80 °C1018.50 hPa66.00 %4.68 km/hW5.80 °C0.00 °C 
15:45:005.80 °C1018.50 hPa64.00 %2.52 km/hWNW5.80 °C-0.50 °C 
15:30:006.30 °C1018.50 hPa63.00 %-0.20 °C 
15:15:006.10 °C1018.60 hPa63.00 %7.20 km/hW4.60 °C-0.40 °C 
15:00:006.20 °C1018.60 hPa61.00 %-0.70 °C 
14:45:006.80 °C1018.80 hPa60.00 %-0.40 °C 
14:30:006.80 °C1018.60 hPa60.00 %6.84 km/hW5.50 °C-0.40 °C 
14:15:007.40 °C1018.60 hPa56.00 %5.76 km/hWNW6.60 °C-0.80 °C 
14:00:006.40 °C1018.60 hPa60.00 %5.76 km/hNNW5.40 °C-0.80 °C 
13:45:006.80 °C1018.60 hPa63.00 %3.24 km/hN6.80 °C0.30 °C 
13:30:007.10 °C1018.50 hPa59.00 %2.52 km/hW7.10 °C-0.40 °C 
13:15:007.30 °C1018.30 hPa62.00 %0.50 °C 
13:00:007.50 °C1018.30 hPa58.00 %2.52 km/hNW7.50 °C-0.20 °C 
12:45:006.90 °C1018.40 hPa61.00 %5.04 km/hNNW6.20 °C-0.10 °C 
12:30:006.40 °C1018.40 hPa63.00 %10.08 km/hSW4.30 °C-0.10 °C 
12:15:006.10 °C1018.20 hPa62.00 %-0.60 °C 
12:00:005.80 °C1018.40 hPa63.00 %4.32 km/hWNW5.80 °C-0.70 °C 
11:45:006.20 °C1018.30 hPa65.00 %2.52 km/hW6.20 °C0.10 °C 
11:30:005.90 °C1018.00 hPa66.00 %5.04 km/hWNW5.10 °C0.00 °C 
11:15:005.50 °C1018.10 hPa68.00 %4.32 km/hWNW5.50 °C0.10 °C 
11:00:004.80 °C1018.00 hPa70.00 %1.80 km/hWNW4.80 °C-0.20 °C 
10:45:004.10 °C1017.80 hPa73.00 %-0.30 °C 
10:30:003.90 °C1017.80 hPa74.00 %-0.30 °C 
10:15:003.40 °C1017.70 hPa75.00 %-0.60 °C 
10:00:003.10 °C1017.70 hPa78.00 %1.08 km/hW3.10 °C-0.40 °C 
09:45:002.90 °C1017.60 hPa80.00 %-0.20 °C 
09:30:002.80 °C1017.20 hPa80.00 %-0.30 °C 
09:15:002.70 °C1016.90 hPa81.00 %2.52 km/hWSW2.70 °C-0.20 °C 
09:00:002.60 °C1016.90 hPa81.00 %3.96 km/hWNW2.60 °C-0.30 °C 
08:45:002.50 °C1016.60 hPa82.00 %11.16 km/hWNW-0.60 °C-0.30 °C 
08:30:002.50 °C1016.40 hPa82.00 %5.76 km/hNNW0.90 °C-0.30 °C 
08:15:002.40 °C1016.10 hPa83.00 %-0.20 °C 
08:00:002.40 °C1016.00 hPa83.00 %-0.20 °C 
07:45:002.40 °C1016.00 hPa83.00 %-0.20 °C 
07:30:002.40 °C1015.80 hPa83.00 %-0.20 °C 
07:15:002.30 °C1015.50 hPa83.00 %2.16 km/hW2.30 °C-0.30 °C 
07:00:002.30 °C1015.60 hPa83.00 %-0.30 °C 
06:45:002.20 °C1015.30 hPa83.00 %2.88 km/hNW2.20 °C-0.40 °C 
06:30:002.20 °C1015.50 hPa83.00 %-0.40 °C 
06:15:002.30 °C1015.20 hPa82.00 %-0.40 °C 
06:00:002.60 °C1015.10 hPa82.00 %-0.20 °C 
05:45:002.70 °C1015.00 hPa82.00 %-0.10 °C 
05:30:002.70 °C1014.90 hPa82.00 %3.60 km/hW2.70 °C-0.10 °C 
05:15:002.70 °C1014.80 hPa81.00 %1.80 km/hNNW2.70 °C-0.20 °C 
05:00:002.90 °C1014.60 hPa80.00 %1.44 km/hW2.90 °C-0.20 °C 
04:45:002.90 °C1014.70 hPa80.00 %10.44 km/hW0.00 °C-0.20 °C 
04:30:002.90 °C1014.70 hPa80.00 %-0.20 °C 
04:15:002.80 °C1014.70 hPa80.00 %-0.30 °C 
04:00:002.70 °C1014.40 hPa80.00 %1.80 km/hNNW2.70 °C-0.40 °C 
03:45:002.40 °C1014.40 hPa81.00 %3.96 km/hWNW2.40 °C-0.50 °C 
03:30:002.20 °C1014.90 hPa82.00 %-0.50 °C 
03:15:001.90 °C1014.80 hPa81.00 %-1.00 °C 
03:00:002.20 °C1014.80 hPa80.00 %-0.90 °C 
02:45:002.50 °C1014.50 hPa79.00 %-0.80 °C 
02:30:002.80 °C1014.40 hPa79.00 %-0.50 °C 
02:15:003.00 °C1014.50 hPa79.00 %6.12 km/hNNW1.40 °C-0.30 °C 
02:00:003.40 °C1014.70 hPa79.00 %0.10 °C 
01:45:003.60 °C1014.30 hPa79.00 %3.96 km/hWNW3.60 °C0.30 °C 
01:30:003.60 °C1014.30 hPa79.00 %3.24 km/hNNW3.60 °C0.30 °C 
01:15:003.90 °C1014.20 hPa79.00 %2.16 km/hWNW3.90 °C0.60 °C 
01:00:004.20 °C1014.10 hPa79.00 %0.90 °C 
00:45:004.30 °C1014.20 hPa78.00 %0.72 km/hW4.30 °C0.80 °C 
00:30:004.40 °C1014.10 hPa78.00 %0.90 °C 
00:15:004.60 °C1014.20 hPa77.00 %2.52 km/hNNO4.60 °C0.90 °C 
00:00:004.90 °C1014.10 hPa77.00 %1.20 °C 

Permanenter Link zu dieser Seite: Wetter im Erzgebirge am 11.04.2017
Performance-Info: Die Erstellung der Seite / Statistik(en) / Tabelle(n) erforderte 5 Datenbankserver-Abfrage(n) und dauerte 101 Millisekunden. (Dieser Messwert ist von der Gesamt-Auslastung des Servers abhängig.)
Erzgebirge - Wetter | Erzgebirge - Wetter (Mobilgeräte) | Komplette Klimadatenbank